KCCR

Buchanan Field Airport

Concord, California, USA
METAR KCCR 221953Z 33010KT 10SM CLR 19/10 A2994 RMK AO2 SLP124 T01890100 $
Observed Flight Rules
Oct-22 @ 19:53 UTC (56 minutes ago) Visual Flight Rules
Wind Visibility Clouds
330° at 10 knots 10 miles
  • Clear skies
Temperatures Readings
Current 19°C / 66°F
Dewpoint 10°C / 50°F
Humidity 56%
Altimeter 29.94" Hg
Pressure 1012.4 hPa
Elevation 11
METAR KCCR 221953Z 33010KT 10SM CLR 19/10 A2994 RMK AO2 SLP124 T01890100 $
Observed Flight Rules
Oct-22 @ 19:53 UTC
(56 minutes ago)
VFR
Wind Visibility
330° at 10 knots 10 miles
Clouds
  • Clear skies
Temperature Dewpoint
19°C / 66°F 10°C / 50°F
Humidity Altimeter Pressure
56% 29.94" Hg 1012.4 hPa